Flanagan, Illinois
Current Conditions -  °F | °C
As of 7:55 AM on Monday 24 Nov 2014 (Local Time) from KPNT Reporting Station
Light Snow Light Snow  
Wind Chill: 21°   Ceiling: 800
Heat Index: 34°   Visibility: 1.2mi
Dew Point: 34°   Wind: 28mph
Humidity: 98%   Direction: 260°W
Pressure: 29.26"   Gusts: 35mph
Location:  40.88°N, 88.86°W
Report Text: KPNT 241355Z AUTO 26024G30KT 1 1/4SM -SN OVC008 01/01 A2926 RMK AO2 P0015 T00130010
Loading
Personal Weather Stations






























Interactive Weather Map New forecast layout! Learn more

10-Day Weather Forecast

Advertisements
Track Severe Weather on mobile